createdAt,value
2023-02-11T00:01:31.889Z,72.00
2023-02-11T00:04:34.870Z,78.70
2023-02-11T00:07:37.844Z,69.63
2023-02-11T00:10:40.246Z,66.00
2023-02-11T00:13:44.587Z,82.40
2023-02-11T00:16:47.103Z,88.05
2023-02-11T00:19:53.321Z,75.37
2023-02-11T00:22:55.995Z,76.22
2023-02-11T00:25:58.842Z,72.47
2023-02-11T00:29:02.109Z,83.03
2023-02-11T00:32:09.231Z,78.63
2023-02-11T00:35:11.799Z,79.30
2023-02-11T00:38:15.513Z,73.63
2023-02-11T00:41:19.296Z,71.77
2023-02-11T00:44:22.524Z,93.90
2023-02-11T00:47:25.030Z,84.78
2023-02-11T00:50:28.563Z,80.63
2023-02-11T00:53:32.320Z,94.70
2023-02-11T00:56:35.428Z,90.55
2023-02-11T00:59:38.210Z,72.15
2023-02-11T01:02:41.731Z,78.68
2023-02-11T01:05:46.022Z,79.25
2023-02-11T01:08:49.116Z,74.57
2023-02-11T01:11:51.562Z,59.60
2023-02-11T01:14:54.400Z,68.25
2023-02-11T01:17:56.938Z,72.45
2023-02-11T01:21:00.450Z,78.73
2023-02-11T01:24:03.182Z,85.63
2023-02-11T01:27:05.954Z,75.00
2023-02-11T01:30:10.426Z,59.05
2023-02-11T01:33:13.256Z,80.57
2023-02-11T01:36:16.021Z,63.53
2023-02-11T01:39:19.088Z,72.80
2023-02-11T01:42:23.716Z,68.00
2023-02-11T01:45:46.223Z,73.63
2023-02-11T01:48:53.368Z,70.90
2023-02-11T01:52:02.266Z,72.30
2023-02-11T01:55:27.864Z,75.20
2023-02-11T01:58:36.161Z,60.92
2023-02-11T02:01:41.616Z,62.75
2023-02-11T02:04:59.147Z,55.20
2023-02-11T02:08:23.112Z,70.18
2023-02-11T02:11:26.480Z,55.28
2023-02-11T02:14:29.058Z,65.17
2023-02-11T02:17:43.588Z,68.82
2023-02-11T02:20:52.011Z,73.78
2023-02-11T02:24:14.304Z,67.17
2023-02-11T02:27:48.723Z,78.32
2023-02-11T02:30:57.305Z,78.93
2023-02-11T02:34:02.084Z,71.22
2023-02-11T02:37:13.411Z,67.22
2023-02-11T02:40:23.459Z,59.80
2023-02-11T02:43:28.133Z,59.85
2023-02-11T02:46:32.986Z,67.77
2023-02-11T02:49:36.315Z,62.35
2023-02-11T02:52:53.677Z,64.32
2023-02-11T02:56:07.787Z,63.43
2023-02-11T02:59:29.700Z,65.55
2023-02-11T03:03:04.626Z,64.43
2023-02-11T03:06:44.228Z,64.43
2023-02-11T03:10:03.226Z,63.92
2023-02-11T03:13:07.356Z,62.17
2023-02-11T03:16:22.520Z,68.63
2023-02-11T03:19:31.225Z,55.67
2023-02-11T03:22:41.346Z,67.72
2023-02-11T03:26:23.321Z,59.28
2023-02-11T03:29:51.893Z,53.30
2023-02-11T03:33:06.926Z,56.13
2023-02-11T03:36:15.782Z,62.67
2023-02-11T03:39:24.459Z,60.35
2023-02-11T03:42:32.858Z,65.80
2023-02-11T03:45:37.995Z,67.32
2023-02-11T03:48:54.449Z,77.45
2023-02-11T03:51:58.107Z,77.93
2023-02-11T03:55:04.215Z,59.33
2023-02-11T03:58:07.462Z,65.18
2023-02-11T04:01:10.980Z,63.67
2023-02-11T04:04:13.715Z,65.82
2023-02-11T04:07:16.406Z,56.85
2023-02-11T04:10:19.279Z,51.35
2023-02-11T04:13:22.661Z,51.92
2023-02-11T04:16:25.363Z,42.65
2023-02-11T04:19:28.298Z,46.60
2023-02-11T04:22:31.017Z,38.03
2023-02-11T04:25:33.925Z,48.38
2023-02-11T04:28:36.621Z,42.10
2023-02-11T04:31:39.464Z,42.47
2023-02-11T04:34:42.153Z,37.97
2023-02-11T04:37:44.870Z,58.00
2023-02-11T04:40:47.558Z,62.72
2023-02-11T04:43:50.363Z,61.08
2023-02-11T04:46:53.116Z,52.38
2023-02-11T04:49:56.271Z,59.78
2023-02-11T04:52:58.763Z,51.70
2023-02-11T04:56:02.025Z,52.42
2023-02-11T04:59:05.350Z,55.90
2023-02-11T05:02:08.650Z,57.73
2023-02-11T05:05:11.354Z,30.52
2023-02-11T05:08:13.892Z,55.65
2023-02-11T05:11:19.349Z,53.17
2023-02-11T05:14:21.922Z,60.42
2023-02-11T05:17:24.604Z,57.08
2023-02-11T05:20:27.658Z,53.75
2023-02-11T05:23:30.174Z,69.27
2023-02-11T05:26:33.255Z,81.60
2023-02-11T05:29:35.993Z,100.75
2023-02-11T05:32:39.151Z,84.03
2023-02-11T05:35:45.039Z,71.22
2023-02-11T05:38:48.134Z,51.42
2023-02-11T05:41:50.865Z,66.10
2023-02-11T05:44:53.573Z,71.90
2023-02-11T05:47:57.111Z,67.60
2023-02-11T05:51:00.047Z,79.75
2023-02-11T05:54:02.494Z,68.83
2023-02-11T05:57:05.364Z,75.75
2023-02-11T06:00:09.362Z,68.65
2023-02-11T06:03:18.371Z,74.17
2023-02-11T06:06:21.298Z,61.92
2023-02-11T06:09:24.041Z,85.80
2023-02-11T06:12:27.222Z,68.10
2023-02-11T06:15:29.922Z,87.15
2023-02-11T06:18:33.672Z,109.53
2023-02-11T06:21:43.797Z,103.82
2023-02-11T06:25:00.708Z,99.70
2023-02-11T06:28:04.994Z,111.10
2023-02-11T06:31:08.286Z,112.32
2023-02-11T06:34:11.342Z,110.73
2023-02-11T06:37:14.146Z,134.82
2023-02-11T06:40:16.889Z,103.03
2023-02-11T06:43:20.086Z,65.60
2023-02-11T06:46:23.253Z,44.85
2023-02-11T06:49:25.998Z,68.95
2023-02-11T06:52:29.038Z,56.50
2023-02-11T06:55:31.527Z,41.17
2023-02-11T06:58:34.550Z,52.13
2023-02-11T07:01:37.303Z,45.28
2023-02-11T07:04:40.195Z,47.73
2023-02-11T07:07:42.791Z,33.67
2023-02-11T07:10:45.446Z,47.78
2023-02-11T07:13:48.322Z,34.58
2023-02-11T07:16:50.914Z,46.60
2023-02-11T07:19:53.756Z,46.30
2023-02-11T07:22:56.490Z,47.58
2023-02-11T07:26:06.934Z,42.97
2023-02-11T07:29:09.874Z,38.67
2023-02-11T07:32:13.200Z,50.67
2023-02-11T07:35:16.135Z,53.07
2023-02-11T07:38:18.954Z,31.25
2023-02-11T07:41:24.098Z,45.88
2023-02-11T07:44:26.816Z,47.45
2023-02-11T07:47:29.446Z,48.90
2023-02-11T07:50:32.053Z,50.80
2023-02-11T07:53:34.814Z,48.58
2023-02-11T07:56:37.242Z,53.13
2023-02-11T07:59:40.197Z,60.28
2023-02-11T08:02:42.864Z,33.90
2023-02-11T08:05:45.938Z,45.20
2023-02-11T08:08:49.207Z,47.85
2023-02-11T08:11:51.972Z,52.90
2023-02-11T08:14:55.270Z,46.28
2023-02-11T08:17:57.866Z,61.83
2023-02-11T08:21:05.885Z,42.28
2023-02-11T08:24:09.107Z,61.13
2023-02-11T08:27:11.565Z,46.80
2023-02-11T08:30:14.563Z,50.63
2023-02-11T08:33:16.954Z,59.63
2023-02-11T08:36:22.500Z,52.50
2023-02-11T08:39:25.255Z,58.92
2023-02-11T08:42:27.951Z,54.55
2023-02-11T08:45:30.743Z,67.60
2023-02-11T08:48:33.722Z,64.30
2023-02-11T08:51:36.320Z,61.33
2023-02-11T08:54:39.331Z,42.67
2023-02-11T08:57:41.739Z,51.27
2023-02-11T09:00:45.546Z,68.53
2023-02-11T09:03:48.479Z,60.47
2023-02-11T09:06:51.466Z,62.87
2023-02-11T09:09:53.997Z,62.03
2023-02-11T09:12:57.043Z,62.55
2023-02-11T09:16:01.745Z,62.08
2023-02-11T09:19:05.285Z,65.97
2023-02-11T09:22:08.212Z,57.75
2023-02-11T09:25:11.634Z,69.93
2023-02-11T09:28:14.088Z,29.23
2023-02-11T09:31:19.498Z,66.88
2023-02-11T09:34:22.017Z,34.92
2023-02-11T09:37:24.736Z,30.77
2023-02-11T09:40:27.678Z,39.80
2023-02-11T09:44:03.285Z,75.18
2023-02-11T09:47:34.836Z,64.20
2023-02-11T09:50:42.910Z,58.30
2023-02-11T09:53:45.829Z,60.35
2023-02-11T09:56:48.517Z,58.55
2023-02-11T09:59:51.084Z,62.47
2023-02-11T10:03:18.387Z,60.40
2023-02-11T10:06:32.894Z,59.67
2023-02-11T10:09:45.559Z,59.30
2023-02-11T10:13:18.634Z,49.90
2023-02-11T10:16:43.524Z,61.85
2023-02-11T10:20:14.622Z,61.25
2023-02-11T10:23:22.635Z,35.30
2023-02-11T10:26:30.942Z,48.10
2023-02-11T10:29:49.914Z,65.78
2023-02-11T10:32:59.745Z,44.37
2023-02-11T10:36:04.349Z,77.53
2023-02-11T10:39:17.759Z,76.43
2023-02-11T10:42:20.491Z,34.07
2023-02-11T10:45:33.318Z,68.95
2023-02-11T10:48:37.562Z,62.72
2023-02-11T10:51:40.233Z,60.25
2023-02-11T10:54:55.354Z,36.33
2023-02-11T10:58:02.834Z,48.30
2023-02-11T11:01:19.026Z,34.72
2023-02-11T11:04:44.052Z,59.47
2023-02-11T11:08:02.495Z,46.25
2023-02-11T11:11:09.032Z,40.85
2023-02-11T11:14:20.765Z,41.57
2023-02-11T11:17:23.551Z,52.30
2023-02-11T11:20:29.379Z,37.58
2023-02-11T11:23:32.484Z,48.03
2023-02-11T11:26:49.089Z,41.78
2023-02-11T11:29:55.386Z,31.60
2023-02-11T11:32:59.475Z,49.83
2023-02-11T11:36:09.556Z,43.77
2023-02-11T11:39:26.738Z,43.95
2023-02-11T11:42:34.825Z,59.85
2023-02-11T11:45:37.746Z,47.60
2023-02-11T11:48:47.589Z,56.67
2023-02-11T11:52:19.444Z,60.80
2023-02-11T11:55:27.185Z,30.13
2023-02-11T11:58:32.366Z,52.10
2023-02-11T12:01:54.083Z,44.55
2023-02-11T12:05:14.928Z,51.47
2023-02-11T12:08:31.463Z,56.67
2023-02-11T12:12:03.020Z,51.40
2023-02-11T12:15:31.401Z,64.63
2023-02-11T12:19:12.274Z,59.70
2023-02-11T12:22:41.950Z,52.83
2023-02-11T12:26:16.062Z,46.97
2023-02-11T12:29:36.783Z,33.97
2023-02-11T12:32:45.053Z,54.83
2023-02-11T12:36:05.981Z,48.05
2023-02-11T12:39:12.082Z,38.42
2023-02-11T12:42:57.590Z,51.33
2023-02-11T12:46:33.601Z,45.83
2023-02-11T12:50:18.182Z,56.13
2023-02-11T12:53:29.205Z,46.70
2023-02-11T12:56:39.710Z,50.15
2023-02-11T12:59:57.207Z,45.67
2023-02-11T13:03:07.215Z,46.55
2023-02-11T13:06:16.517Z,48.08
2023-02-11T13:09:32.367Z,44.70
2023-02-11T13:12:55.634Z,44.03
2023-02-11T13:16:19.962Z,41.67
2023-02-11T13:19:41.331Z,47.00
2023-02-11T13:22:51.906Z,47.58
2023-02-11T13:26:24.086Z,50.60
2023-02-11T13:29:36.419Z,42.97
2023-02-11T13:33:16.550Z,32.55
2023-02-11T13:36:22.023Z,23.98
2023-02-11T13:39:25.090Z,43.55
2023-02-11T13:42:29.838Z,39.38
2023-02-11T13:45:50.039Z,41.80
2023-02-11T13:48:54.101Z,45.20
2023-02-11T13:51:58.101Z,31.70
2023-02-11T13:55:19.930Z,40.08
2023-02-11T13:58:29.598Z,38.37
2023-02-11T14:02:07.818Z,37.92
2023-02-11T14:05:39.167Z,41.35
2023-02-11T14:09:01.631Z,32.45
2023-02-11T14:12:31.259Z,38.20
2023-02-11T14:15:41.194Z,36.00
2023-02-11T14:18:55.937Z,41.55
2023-02-11T14:22:13.532Z,44.70
2023-02-11T14:25:27.220Z,36.22
2023-02-11T14:28:34.487Z,45.13
2023-02-11T14:32:05.724Z,43.63
2023-02-11T14:35:47.469Z,40.00
2023-02-11T14:39:29.919Z,36.58
2023-02-11T14:42:34.609Z,42.03
2023-02-11T14:45:38.698Z,38.40
2023-02-11T14:48:46.949Z,39.72
2023-02-11T14:51:49.903Z,41.53
2023-02-11T14:55:17.791Z,42.83
2023-02-11T14:58:27.204Z,39.72
2023-02-11T15:01:36.041Z,46.30
2023-02-11T15:04:40.794Z,45.30
2023-02-11T15:07:49.654Z,43.47
2023-02-11T15:10:55.259Z,49.67
2023-02-11T15:14:01.894Z,41.13
